createdAt,value
2019-03-29T00:01:09.537Z,7.37
2019-03-29T00:03:37.638Z,6.90
2019-03-29T00:06:06.407Z,7.80
2019-03-29T00:08:35.415Z,7.87
2019-03-29T00:11:04.102Z,7.47
2019-03-29T00:13:32.903Z,7.25
2019-03-29T00:16:00.944Z,7.22
2019-03-29T00:18:28.963Z,7.30
2019-03-29T00:20:57.003Z,7.80
2019-03-29T00:23:25.044Z,7.72
2019-03-29T00:25:53.845Z,7.97
2019-03-29T00:28:21.879Z,8.05
2019-03-29T00:30:49.996Z,8.23
2019-03-29T00:33:18.121Z,7.93
2019-03-29T00:35:46.139Z,7.70
2019-03-29T00:38:14.176Z,7.62
2019-03-29T00:40:42.207Z,7.90
2019-03-29T00:43:10.241Z,7.97
2019-03-29T00:45:38.269Z,8.23
2019-03-29T00:48:06.337Z,7.60
2019-03-29T00:50:34.511Z,8.10
2019-03-29T00:53:02.526Z,8.23
2019-03-29T00:55:30.602Z,7.80
2019-03-29T00:57:59.394Z,8.20
2019-03-29T01:00:27.410Z,7.75
2019-03-29T01:02:55.455Z,8.38
2019-03-29T01:05:23.491Z,8.30
2019-03-29T01:07:52.278Z,8.18
2019-03-29T01:10:21.074Z,8.00
2019-03-29T01:12:49.103Z,8.38
2019-03-29T01:15:17.222Z,7.97
2019-03-29T01:17:45.930Z,8.23
2019-03-29T01:20:13.355Z,8.52
2019-03-29T01:22:41.430Z,9.35
2019-03-29T01:25:10.210Z,8.70
2019-03-29T01:27:38.262Z,8.73
2019-03-29T01:30:07.054Z,9.13
2019-03-29T01:32:35.955Z,8.98
2019-03-29T01:35:04.762Z,9.57
2019-03-29T01:37:32.790Z,9.50
2019-03-29T01:40:01.602Z,9.30
2019-03-29T01:42:29.675Z,9.60
2019-03-29T01:44:57.720Z,9.05
2019-03-29T01:47:26.536Z,9.43
2019-03-29T01:49:54.603Z,9.50
2019-03-29T01:52:22.645Z,9.50
2019-03-29T01:54:50.670Z,9.27
2019-03-29T01:57:18.707Z,9.48
2019-03-29T01:59:46.798Z,9.98
2019-03-29T02:02:14.834Z,9.77
2019-03-29T02:04:43.642Z,10.43
2019-03-29T02:07:12.055Z,10.15
2019-03-29T02:09:39.786Z,10.20
2019-03-29T02:12:08.583Z,9.57
2019-03-29T02:14:36.630Z,9.55
2019-03-29T02:17:04.646Z,9.97
2019-03-29T02:19:32.698Z,10.60
2019-03-29T02:22:00.759Z,10.57
2019-03-29T02:24:28.796Z,10.13
2019-03-29T02:26:57.600Z,10.93
2019-03-29T02:29:25.694Z,10.90
2019-03-29T02:31:56.359Z,11.47
2019-03-29T02:34:22.540Z,11.20
2019-03-29T02:36:50.613Z,11.12
2019-03-29T02:39:18.679Z,11.50
2019-03-29T02:41:46.951Z,12.13
2019-03-29T02:44:15.586Z,12.25
2019-03-29T02:46:43.604Z,11.50
2019-03-29T02:49:12.691Z,12.82
2019-03-29T02:51:39.747Z,12.23
2019-03-29T02:54:08.519Z,12.57
2019-03-29T02:56:36.567Z,13.13
2019-03-29T02:59:04.619Z,12.50
2019-03-29T03:01:32.744Z,12.60
2019-03-29T03:04:00.792Z,12.70
2019-03-29T03:06:29.852Z,13.18
2019-03-29T03:09:12.292Z,12.87
2019-03-29T03:11:26.560Z,13.40
2019-03-29T03:13:54.636Z,13.60
2019-03-29T03:16:22.692Z,13.60
2019-03-29T03:18:50.761Z,14.07
2019-03-29T03:21:18.862Z,14.30
2019-03-29T03:23:46.919Z,14.07
2019-03-29T03:26:15.003Z,14.13
2019-03-29T03:28:43.053Z,14.18
2019-03-29T03:31:11.885Z,14.30
2019-03-29T03:33:39.934Z,13.68
2019-03-29T03:36:07.988Z,13.85
2019-03-29T03:38:36.122Z,13.95
2019-03-29T03:41:04.133Z,14.45
2019-03-29T03:43:32.184Z,14.05
2019-03-29T03:46:00.240Z,13.45
2019-03-29T03:48:29.107Z,13.70
2019-03-29T03:50:57.123Z,13.62
2019-03-29T03:53:25.167Z,13.85
2019-03-29T03:55:53.992Z,14.27
2019-03-29T03:58:22.044Z,13.90
2019-03-29T04:00:51.644Z,13.60
2019-03-29T04:03:20.647Z,13.40
2019-03-29T04:05:48.719Z,13.68
2019-03-29T04:08:16.766Z,13.60
2019-03-29T04:10:44.908Z,13.90
2019-03-29T04:13:13.035Z,13.18
2019-03-29T04:15:41.083Z,13.45
2019-03-29T04:18:09.176Z,13.48
2019-03-29T04:20:37.234Z,14.87
2019-03-29T04:23:06.056Z,14.07
2019-03-29T04:25:34.088Z,14.20
2019-03-29T04:28:02.907Z,15.15
2019-03-29T04:30:30.945Z,14.45
2019-03-29T04:32:59.771Z,14.40
2019-03-29T04:35:27.839Z,15.23
2019-03-29T04:37:56.629Z,15.82
2019-03-29T04:40:24.636Z,15.73
2019-03-29T04:42:52.856Z,15.90
2019-03-29T04:45:21.067Z,16.23
2019-03-29T04:47:49.924Z,16.45
2019-03-29T04:50:18.004Z,16.20
2019-03-29T04:52:46.786Z,16.65
2019-03-29T04:55:16.170Z,16.98
2019-03-29T04:57:44.231Z,17.12
2019-03-29T05:00:13.133Z,17.55
2019-03-29T05:02:41.210Z,17.52
2019-03-29T05:05:09.247Z,17.25
2019-03-29T05:07:38.167Z,16.87
2019-03-29T05:10:19.982Z,17.15
2019-03-29T05:12:34.315Z,16.85
2019-03-29T05:15:02.419Z,16.92
2019-03-29T05:17:30.442Z,17.23
2019-03-29T05:19:58.480Z,17.25
2019-03-29T05:22:26.522Z,16.70
2019-03-29T05:24:54.690Z,17.83
2019-03-29T05:27:22.745Z,17.48
2019-03-29T05:29:51.524Z,17.93
2019-03-29T05:32:19.578Z,18.23
2019-03-29T05:34:47.709Z,18.20
2019-03-29T05:37:15.700Z,17.53
2019-03-29T05:39:44.617Z,18.85
2019-03-29T05:42:12.700Z,19.10
2019-03-29T05:44:41.043Z,18.58
2019-03-29T05:47:08.794Z,19.12
2019-03-29T05:49:36.849Z,18.20
2019-03-29T05:52:04.892Z,17.50
2019-03-29T05:54:32.964Z,17.77
2019-03-29T05:57:01.011Z,16.98
2019-03-29T05:59:29.075Z,16.27
2019-03-29T06:01:57.122Z,16.33
2019-03-29T06:04:25.943Z,15.63
2019-03-29T06:06:54.022Z,15.65
2019-03-29T06:09:22.060Z,15.40
2019-03-29T06:11:50.871Z,15.23
2019-03-29T06:14:19.668Z,14.47
2019-03-29T06:16:47.731Z,14.40
2019-03-29T06:19:16.611Z,14.33
2019-03-29T06:21:44.656Z,15.02
2019-03-29T06:24:12.756Z,14.37
2019-03-29T06:26:40.932Z,14.43
2019-03-29T06:29:08.995Z,14.87
2019-03-29T06:31:37.783Z,15.07
2019-03-29T06:34:05.855Z,14.75
2019-03-29T06:36:34.638Z,14.35
2019-03-29T06:39:02.741Z,15.02
2019-03-29T06:41:30.791Z,14.57
2019-03-29T06:43:58.950Z,13.88
2019-03-29T06:46:27.025Z,13.80
2019-03-29T06:48:55.083Z,13.88
2019-03-29T06:51:24.038Z,14.32
2019-03-29T06:53:52.675Z,14.27
2019-03-29T06:56:20.305Z,14.20
2019-03-29T06:58:49.029Z,13.87
2019-03-29T07:01:17.124Z,14.07
2019-03-29T07:03:45.143Z,14.90
2019-03-29T07:06:13.954Z,14.95
2019-03-29T07:08:42.023Z,15.05
2019-03-29T07:11:17.433Z,15.20
2019-03-29T07:13:38.983Z,18.35
2019-03-29T07:16:09.310Z,20.48
2019-03-29T07:18:37.349Z,17.48
2019-03-29T07:21:05.382Z,16.27
2019-03-29T07:23:33.481Z,16.10
2019-03-29T07:26:01.571Z,15.30
2019-03-29T07:28:29.641Z,14.75
2019-03-29T07:30:58.579Z,15.70
2019-03-29T07:33:26.634Z,15.65
2019-03-29T07:35:54.703Z,15.20
2019-03-29T07:38:22.800Z,15.20
2019-03-29T07:40:50.886Z,15.40
2019-03-29T07:43:18.959Z,14.48
2019-03-29T07:45:47.123Z,14.20
2019-03-29T07:48:15.197Z,14.07
2019-03-29T07:50:43.284Z,14.10
2019-03-29T07:53:11.357Z,13.77
2019-03-29T07:55:40.204Z,13.10
2019-03-29T07:58:08.266Z,14.05
2019-03-29T08:00:36.359Z,13.17
2019-03-29T08:03:04.419Z,13.77
2019-03-29T08:05:35.238Z,12.85
2019-03-29T08:08:01.372Z,13.05
2019-03-29T08:10:31.448Z,13.18
2019-03-29T08:12:57.835Z,12.65
2019-03-29T08:15:25.831Z,11.90
2019-03-29T08:17:53.897Z,11.77
2019-03-29T08:20:39.256Z,12.27
2019-03-29T08:22:49.986Z,11.60
2019-03-29T08:25:18.076Z,11.73
2019-03-29T08:27:46.109Z,11.90
2019-03-29T08:30:14.196Z,11.45
2019-03-29T08:32:42.237Z,12.00
2019-03-29T08:35:11.078Z,11.40
2019-03-29T08:37:39.138Z,11.48
2019-03-29T08:40:07.212Z,12.30
2019-03-29T08:42:35.363Z,12.63
2019-03-29T08:45:03.428Z,12.88
2019-03-29T08:47:31.505Z,13.73
2019-03-29T08:49:59.571Z,14.87
2019-03-29T08:52:27.674Z,15.70
2019-03-29T08:54:55.710Z,15.88
2019-03-29T08:57:24.639Z,15.97
2019-03-29T08:59:52.693Z,16.12
2019-03-29T09:02:20.842Z,16.40
2019-03-29T09:04:49.030Z,15.98
2019-03-29T09:07:17.291Z,15.48
2019-03-29T09:09:46.506Z,15.47
2019-03-29T09:12:14.918Z,15.45
2019-03-29T09:14:41.536Z,14.73
2019-03-29T09:17:09.603Z,14.07
2019-03-29T09:19:37.792Z,14.55
2019-03-29T09:22:05.927Z,14.98
2019-03-29T09:24:33.988Z,14.52
2019-03-29T09:27:02.025Z,14.70
2019-03-29T09:29:30.939Z,14.30
2019-03-29T09:31:59.046Z,13.60
2019-03-29T09:34:28.871Z,13.75
2019-03-29T09:36:55.149Z,12.57
2019-03-29T09:39:23.230Z,12.02
2019-03-29T09:41:52.027Z,12.30
2019-03-29T09:44:20.114Z,11.35
2019-03-29T09:46:48.180Z,11.88
2019-03-29T09:49:16.256Z,10.77
2019-03-29T09:51:44.411Z,11.00
2019-03-29T09:54:12.472Z,10.65
2019-03-29T09:56:40.638Z,10.93
2019-03-29T09:59:08.733Z,10.48
2019-03-29T10:01:36.914Z,10.50
2019-03-29T10:04:04.867Z,11.18
2019-03-29T10:06:32.940Z,10.18
2019-03-29T10:09:00.999Z,9.88
2019-03-29T10:11:29.058Z,9.45
2019-03-29T10:13:57.131Z,8.57
2019-03-29T10:16:26.043Z,8.27
2019-03-29T10:18:53.230Z,8.75
2019-03-29T10:21:21.339Z,9.63
2019-03-29T10:23:49.440Z,10.07
2019-03-29T10:26:17.500Z,9.23
2019-03-29T10:28:46.302Z,9.63
2019-03-29T10:31:14.461Z,9.85
2019-03-29T10:33:42.682Z,9.60
2019-03-29T10:36:10.898Z,9.77
2019-03-29T10:38:39.683Z,9.30
2019-03-29T10:41:08.008Z,9.52
2019-03-29T10:43:36.110Z,8.68
2019-03-29T10:46:04.916Z,9.45
2019-03-29T10:48:32.992Z,9.68
2019-03-29T10:51:01.875Z,9.80
2019-03-29T10:53:29.930Z,9.77
2019-03-29T10:55:58.846Z,9.57
2019-03-29T10:58:27.629Z,9.73
2019-03-29T11:00:55.677Z,8.95
2019-03-29T11:03:24.592Z,8.60
2019-03-29T11:05:52.656Z,8.60
2019-03-29T11:08:20.724Z,8.75
2019-03-29T11:10:48.762Z,9.35
2019-03-29T11:13:17.604Z,10.13
2019-03-29T11:15:45.657Z,9.77
2019-03-29T11:18:13.719Z,9.95
2019-03-29T11:20:41.783Z,9.80
2019-03-29T11:23:09.863Z,10.00
2019-03-29T11:25:38.638Z,9.47
2019-03-29T11:28:07.447Z,8.95
2019-03-29T11:30:42.171Z,8.70
2019-03-29T11:33:03.584Z,8.55
2019-03-29T11:35:31.645Z,9.13
2019-03-29T11:38:00.699Z,10.48
2019-03-29T11:40:28.926Z,9.00
2019-03-29T11:42:56.964Z,7.78
2019-03-29T11:45:25.775Z,8.00
2019-03-29T11:48:07.230Z,7.97
2019-03-29T11:50:22.726Z,8.05
2019-03-29T11:52:51.618Z,8.70
2019-03-29T11:55:19.664Z,8.00
2019-03-29T11:57:47.732Z,8.68
2019-03-29T12:00:15.763Z,8.35
2019-03-29T12:02:43.790Z,8.90
2019-03-29T12:05:12.592Z,8.68
2019-03-29T12:07:40.637Z,8.10
2019-03-29T12:10:08.663Z,9.02
2019-03-29T12:12:36.711Z,8.80
2019-03-29T12:15:05.647Z,8.18
2019-03-29T12:17:33.758Z,7.72
2019-03-29T12:20:01.825Z,8.30
2019-03-29T12:22:30.845Z,8.65
2019-03-29T12:24:58.978Z,8.05
2019-03-29T12:27:27.778Z,8.07
2019-03-29T12:29:55.860Z,8.35
2019-03-29T12:32:23.936Z,8.15
2019-03-29T12:34:52.002Z,8.30
2019-03-29T12:37:20.084Z,8.30
2019-03-29T12:39:48.136Z,9.02
2019-03-29T12:42:16.215Z,8.43
2019-03-29T12:44:44.259Z,7.90
2019-03-29T12:47:13.786Z,7.93
2019-03-29T12:49:41.860Z,7.70
2019-03-29T12:52:09.903Z,7.37
2019-03-29T12:54:38.819Z,8.52
2019-03-29T12:57:07.211Z,8.00
2019-03-29T12:59:35.044Z,7.72
2019-03-29T13:02:03.033Z,8.27
2019-03-29T13:04:31.110Z,8.60
2019-03-29T13:06:59.165Z,8.80
2019-03-29T13:09:27.307Z,8.43
2019-03-29T13:11:55.426Z,8.40
2019-03-29T13:14:23.493Z,8.07
2019-03-29T13:16:51.645Z,8.07
2019-03-29T13:19:20.459Z,8.10
2019-03-29T13:21:48.803Z,7.60
2019-03-29T13:24:17.606Z,7.85
2019-03-29T13:26:45.693Z,7.55
2019-03-29T13:29:13.939Z,7.65
2019-03-29T13:31:42.764Z,8.70
2019-03-29T13:34:11.009Z,7.40
2019-03-29T13:36:39.041Z,7.87
2019-03-29T13:39:07.159Z,7.62
2019-03-29T13:41:35.279Z,8.32
2019-03-29T13:44:03.342Z,8.90
2019-03-29T13:46:31.681Z,8.55
2019-03-29T13:48:59.726Z,9.23
2019-03-29T13:51:28.675Z,10.18
2019-03-29T13:53:56.795Z,10.27
2019-03-29T13:56:25.054Z,10.43
2019-03-29T13:58:53.112Z,10.30
2019-03-29T14:01:21.168Z,11.27
2019-03-29T14:03:49.227Z,10.98
2019-03-29T14:06:17.331Z,10.45
2019-03-29T14:08:46.172Z,10.50
2019-03-29T14:11:14.411Z,10.43
2019-03-29T14:13:43.231Z,10.35
2019-03-29T14:16:11.494Z,9.45
2019-03-29T14:18:40.398Z,9.77
2019-03-29T14:21:08.445Z,9.95
2019-03-29T14:23:37.249Z,9.68
2019-03-29T14:26:05.316Z,9.63
2019-03-29T14:28:33.362Z,9.40
2019-03-29T14:31:02.186Z,9.65
2019-03-29T14:36:30.063Z,10.25
2019-03-29T14:38:58.149Z,10.57
2019-03-29T14:41:26.303Z,10.40
2019-03-29T14:43:54.423Z,10.05
2019-03-29T14:46:22.541Z,10.35
2019-03-29T14:48:50.596Z,9.80
2019-03-29T14:51:19.534Z,10.90
2019-03-29T14:53:47.684Z,10.25
2019-03-29T14:56:15.744Z,10.00
2019-03-29T14:58:43.827Z,10.48
2019-03-29T15:01:11.895Z,10.45
2019-03-29T15:03:39.948Z,10.02
2019-03-29T15:06:09.027Z,9.80
2019-03-29T15:08:37.859Z,10.40
2019-03-29T15:11:05.924Z,10.40
2019-03-29T15:13:34.013Z,11.57
2019-03-29T15:16:02.077Z,11.68
2019-03-29T15:18:30.245Z,11.80
2019-03-29T15:20:58.405Z,11.30
2019-03-29T15:23:26.491Z,10.55
2019-03-29T15:25:54.554Z,10.48
2019-03-29T15:28:23.508Z,10.50
2019-03-29T15:30:52.635Z,11.05
2019-03-29T15:33:20.507Z,11.20
2019-03-29T15:35:48.561Z,10.60
2019-03-29T15:38:16.621Z,10.93
2019-03-29T15:40:44.715Z,11.20
2019-03-29T15:43:12.824Z,9.63
2019-03-29T15:45:40.847Z,11.60
2019-03-29T15:48:09.046Z,11.38
2019-03-29T15:50:36.995Z,11.52
2019-03-29T15:53:05.171Z,11.98
2019-03-29T15:55:33.219Z,12.30
2019-03-29T15:58:01.291Z,11.73
2019-03-29T16:00:29.376Z,11.80
2019-03-29T16:02:57.620Z,12.07
2019-03-29T16:05:26.460Z,12.43
2019-03-29T16:07:54.487Z,10.23
2019-03-29T16:10:22.534Z,11.35
2019-03-29T16:12:50.567Z,11.48
2019-03-29T16:15:18.717Z,12.00
2019-03-29T16:17:47.512Z,12.30
2019-03-29T16:20:15.695Z,11.80
2019-03-29T16:22:43.761Z,12.27
2019-03-29T16:25:11.899Z,12.23
2019-03-29T16:27:40.864Z,12.60
2019-03-29T16:30:09.045Z,12.50
2019-03-29T16:32:37.128Z,12.88
2019-03-29T16:35:05.884Z,12.85
2019-03-29T16:37:34.356Z,13.20
2019-03-29T16:40:02.385Z,12.50
2019-03-29T16:42:30.448Z,12.25
2019-03-29T16:44:58.525Z,12.55
2019-03-29T16:47:26.605Z,11.90
2019-03-29T16:49:54.695Z,13.40
2019-03-29T16:52:22.742Z,13.15
2019-03-29T16:54:50.823Z,12.57
2019-03-29T16:57:19.713Z,13.02
2019-03-29T16:59:47.792Z,13.07
2019-03-29T17:02:15.948Z,12.73
2019-03-29T17:04:43.999Z,13.23
2019-03-29T17:07:12.828Z,13.00
2019-03-29T17:09:40.893Z,13.02
2019-03-29T17:12:08.964Z,12.18
2019-03-29T17:14:37.013Z,13.07
2019-03-29T17:17:05.070Z,13.43
2019-03-29T17:19:33.900Z,13.20
2019-03-29T17:22:01.952Z,12.93
2019-03-29T17:24:30.754Z,13.27
2019-03-29T17:26:58.812Z,13.27
2019-03-29T17:29:26.875Z,13.48
2019-03-29T17:31:54.930Z,12.80
2019-03-29T17:34:23.020Z,13.95
2019-03-29T17:36:51.088Z,13.07
2019-03-29T17:39:22.026Z,13.02
2019-03-29T17:41:47.218Z,13.30
2019-03-29T17:44:15.434Z,13.80
2019-03-29T17:46:43.492Z,13.70
2019-03-29T17:49:11.524Z,13.87
2019-03-29T17:51:39.579Z,14.05
2019-03-29T17:54:07.694Z,13.70
2019-03-29T17:56:35.782Z,13.52
2019-03-29T17:59:03.839Z,14.05
2019-03-29T18:01:31.983Z,12.52
2019-03-29T18:04:00.084Z,13.88
2019-03-29T18:06:28.136Z,14.15
2019-03-29T18:08:56.198Z,14.13
2019-03-29T18:11:24.281Z,14.25
2019-03-29T18:13:52.352Z,14.60
2019-03-29T18:16:30.539Z,14.20
2019-03-29T18:18:50.240Z,14.43
2019-03-29T18:21:18.287Z,15.25
2019-03-29T18:23:46.383Z,15.13
2019-03-29T18:26:14.455Z,14.73
2019-03-29T18:28:42.511Z,14.68
2019-03-29T18:31:11.297Z,14.23
2019-03-29T18:33:39.374Z,15.18
2019-03-29T18:36:07.427Z,15.18
2019-03-29T18:38:35.488Z,15.10
2019-03-29T18:41:03.514Z,15.50
2019-03-29T18:43:31.581Z,14.55
2019-03-29T18:45:59.640Z,14.90
2019-03-29T18:48:27.714Z,15.50
2019-03-29T18:50:55.805Z,15.85
2019-03-29T18:53:23.855Z,16.17
2019-03-29T18:55:51.911Z,16.25
2019-03-29T18:58:20.706Z,16.23
2019-03-29T19:00:48.787Z,16.58
2019-03-29T19:03:16.833Z,16.23
2019-03-29T19:05:44.904Z,16.77
2019-03-29T19:08:13.694Z,16.67
2019-03-29T19:10:41.747Z,17.30
2019-03-29T19:13:09.799Z,16.40
2019-03-29T19:15:38.724Z,16.58
2019-03-29T19:18:07.612Z,16.55
2019-03-29T19:20:35.687Z,16.58
2019-03-29T19:23:04.476Z,17.27
2019-03-29T19:25:33.035Z,17.12
2019-03-29T19:28:01.102Z,16.15
2019-03-29T19:30:29.919Z,16.77
2019-03-29T19:32:57.980Z,16.10
2019-03-29T19:35:26.081Z,16.77
2019-03-29T19:37:54.234Z,16.52
2019-03-29T19:40:22.304Z,16.48
2019-03-29T19:42:50.355Z,16.45
2019-03-29T19:45:18.443Z,16.80
2019-03-29T19:47:46.493Z,17.80
2019-03-29T19:50:14.576Z,16.70
2019-03-29T19:52:42.635Z,17.05
2019-03-29T19:55:10.727Z,16.65
2019-03-29T19:57:39.623Z,16.27
2019-03-29T20:00:07.678Z,16.80
2019-03-29T20:02:35.764Z,16.15
2019-03-29T20:05:03.767Z,16.57
2019-03-29T20:07:33.320Z,16.17
2019-03-29T20:10:01.385Z,16.40
2019-03-29T20:12:29.450Z,16.37
2019-03-29T20:14:58.274Z,17.75
2019-03-29T20:17:27.749Z,16.83
2019-03-29T20:19:55.215Z,17.43
2019-03-29T20:22:23.281Z,17.42
2019-03-29T20:24:52.071Z,17.30
2019-03-29T20:27:20.123Z,16.67
2019-03-29T20:29:48.224Z,17.27
2019-03-29T20:32:16.283Z,17.30
2019-03-29T20:34:44.452Z,17.27
2019-03-29T20:37:13.236Z,17.63
2019-03-29T20:39:41.284Z,16.75
2019-03-29T20:42:09.315Z,17.10
2019-03-29T20:44:37.377Z,17.58
2019-03-29T20:47:05.531Z,17.85
2019-03-29T20:49:34.417Z,17.30
2019-03-29T20:52:02.471Z,17.08
2019-03-29T20:54:30.528Z,17.33
2019-03-29T20:57:01.243Z,16.83
2019-03-29T20:59:29.789Z,16.60
2019-03-29T21:01:58.039Z,16.80
2019-03-29T21:04:26.842Z,17.10
2019-03-29T21:06:54.894Z,16.92
2019-03-29T21:09:22.967Z,16.42
2019-03-29T21:11:51.043Z,17.20
2019-03-29T21:14:19.084Z,16.85
2019-03-29T21:16:47.997Z,16.23
2019-03-29T21:19:16.043Z,16.48
2019-03-29T21:21:44.972Z,16.25
2019-03-29T21:24:13.012Z,16.30
2019-03-29T21:26:41.924Z,17.35
2019-03-29T21:29:10.703Z,16.65
2019-03-29T21:31:38.759Z,15.77
2019-03-29T21:34:06.849Z,16.20
2019-03-29T21:36:34.905Z,17.23
2019-03-29T21:39:02.947Z,16.73
2019-03-29T21:41:31.884Z,17.23
2019-03-29T21:43:59.931Z,16.37
2019-03-29T21:46:28.769Z,17.00
2019-03-29T21:48:56.804Z,17.12
2019-03-29T21:51:24.857Z,18.00
2019-03-29T21:53:53.665Z,18.65
2019-03-29T21:56:21.731Z,19.10
2019-03-29T21:58:49.797Z,19.17
2019-03-29T22:01:17.820Z,19.00
2019-03-29T22:03:45.865Z,18.77
2019-03-29T22:06:13.927Z,17.80
2019-03-29T22:08:41.951Z,18.40
2019-03-29T22:11:10.059Z,18.83
2019-03-29T22:13:38.112Z,18.83
2019-03-29T22:16:06.188Z,18.65
2019-03-29T22:18:38.025Z,17.17
2019-03-29T22:21:03.069Z,18.85
2019-03-29T22:23:31.952Z,18.07
2019-03-29T22:26:00.043Z,19.58
2019-03-29T22:28:28.100Z,18.05
2019-03-29T22:30:56.144Z,19.65
2019-03-29T22:33:24.220Z,18.77
2019-03-29T22:35:53.015Z,20.95
2019-03-29T22:38:21.071Z,19.77
2019-03-29T22:40:49.132Z,19.60
2019-03-29T22:43:18.127Z,19.90
2019-03-29T22:45:46.120Z,19.85
2019-03-29T22:48:14.204Z,20.70
2019-03-29T22:50:42.268Z,21.20
2019-03-29T22:53:10.328Z,22.10
2019-03-29T22:55:38.396Z,21.23
2019-03-29T22:58:06.462Z,20.55
2019-03-29T23:00:36.130Z,20.90
2019-03-29T23:03:04.183Z,20.33
2019-03-29T23:05:32.242Z,21.30
2019-03-29T23:08:00.272Z,22.02
2019-03-29T23:10:28.325Z,21.55
2019-03-29T23:12:57.147Z,21.40
2019-03-29T23:15:25.197Z,21.33
2019-03-29T23:17:54.027Z,22.02
2019-03-29T23:20:22.071Z,21.58
2019-03-29T23:22:50.123Z,21.73
2019-03-29T23:25:18.947Z,21.37
2019-03-29T23:27:47.192Z,19.60
2019-03-29T23:30:15.792Z,19.25
2019-03-29T23:32:43.891Z,18.83
2019-03-29T23:35:11.911Z,18.87
2019-03-29T23:37:39.972Z,19.27
2019-03-29T23:40:08.902Z,19.52
2019-03-29T23:42:37.779Z,19.97
2019-03-29T23:45:05.829Z,20.65
2019-03-29T23:47:34.651Z,22.05
2019-03-29T23:50:02.699Z,20.33
2019-03-29T23:52:30.775Z,20.45
2019-03-29T23:54:58.836Z,20.40
2019-03-29T23:57:26.891Z,20.45
2019-03-29T23:59:55.703Z,19.30
